sensor_id;sensor_type;location;lat;lon;timestamp;P1;durP1;ratioP1;P2;durP2;ratioP2
25153;SDS011;47555;51.038;6.280;2022-12-17T00:00:06;84.88;;;24.77;;
25153;SDS011;47555;51.038;6.280;2022-12-17T00:02:55;83.40;;;24.05;;
25153;SDS011;47555;51.038;6.280;2022-12-17T00:05:43;65.07;;;22.42;;
25153;SDS011;47555;51.038;6.280;2022-12-17T00:08:28;79.10;;;22.75;;
25153;SDS011;47555;51.038;6.280;2022-12-17T00:11:12;71.30;;;22.70;;
25153;SDS011;47555;51.038;6.280;2022-12-17T00:17:18;68.63;;;20.77;;
25153;SDS011;47555;51.038;6.280;2022-12-17T00:20:03;71.60;;;22.90;;
25153;SDS011;47555;51.038;6.280;2022-12-17T00:22:47;65.55;;;23.08;;
25153;SDS011;47555;51.038;6.280;2022-12-17T00:25:31;65.45;;;20.70;;
25153;SDS011;47555;51.038;6.280;2022-12-17T00:28:15;88.35;;;25.83;;
25153;SDS011;47555;51.038;6.280;2022-12-17T00:30:59;84.13;;;24.48;;
25153;SDS011;47555;51.038;6.280;2022-12-17T00:33:43;76.63;;;23.27;;
25153;SDS011;47555;51.038;6.280;2022-12-17T00:36:42;74.35;;;21.23;;
25153;SDS011;47555;51.038;6.280;2022-12-17T00:39:27;72.05;;;22.48;;
25153;SDS011;47555;51.038;6.280;2022-12-17T00:42:21;71.35;;;21.83;;
25153;SDS011;47555;51.038;6.280;2022-12-17T00:45:05;79.10;;;23.48;;
25153;SDS011;47555;51.038;6.280;2022-12-17T00:47:50;64.82;;;22.20;;
25153;SDS011;47555;51.038;6.280;2022-12-17T00:50:33;75.43;;;22.80;;
25153;SDS011;47555;51.038;6.280;2022-12-17T00:53:18;74.25;;;22.65;;
25153;SDS011;47555;51.038;6.280;2022-12-17T00:56:02;88.47;;;25.80;;
25153;SDS011;47555;51.038;6.280;2022-12-17T01:05:23;71.72;;;21.92;;
25153;SDS011;47555;51.038;6.280;2022-12-17T01:08:08;83.10;;;22.38;;
25153;SDS011;47555;51.038;6.280;2022-12-17T01:10:57;84.53;;;22.38;;
25153;SDS011;47555;51.038;6.280;2022-12-17T01:13:45;77.43;;;20.70;;
25153;SDS011;47555;51.038;6.280;2022-12-17T01:16:29;62.47;;;19.90;;
25153;SDS011;47555;51.038;6.280;2022-12-17T01:19:14;71.05;;;22.02;;
25153;SDS011;47555;51.038;6.280;2022-12-17T01:21:58;76.97;;;23.88;;
25153;SDS011;47555;51.038;6.280;2022-12-17T01:24:42;80.43;;;24.33;;
25153;SDS011;47555;51.038;6.280;2022-12-17T01:27:26;69.85;;;22.52;;
25153;SDS011;47555;51.038;6.280;2022-12-17T01:30:10;69.43;;;22.27;;
25153;SDS011;47555;51.038;6.280;2022-12-17T01:33:01;67.70;;;20.35;;
25153;SDS011;47555;51.038;6.280;2022-12-17T01:35:46;68.85;;;20.00;;
25153;SDS011;47555;51.038;6.280;2022-12-17T01:38:30;73.95;;;21.80;;
25153;SDS011;47555;51.038;6.280;2022-12-17T01:41:14;66.38;;;18.98;;
25153;SDS011;47555;51.038;6.280;2022-12-17T01:43:58;65.97;;;20.35;;
25153;SDS011;47555;51.038;6.280;2022-12-17T01:47:03;63.00;;;21.95;;
25153;SDS011;47555;51.038;6.280;2022-12-17T01:49:47;66.43;;;20.63;;
25153;SDS011;47555;51.038;6.280;2022-12-17T01:52:31;75.78;;;23.30;;
25153;SDS011;47555;51.038;6.280;2022-12-17T01:55:15;74.47;;;23.67;;
25153;SDS011;47555;51.038;6.280;2022-12-17T01:57:59;62.42;;;21.63;;
25153;SDS011;47555;51.038;6.280;2022-12-17T02:00:43;61.38;;;19.73;;
25153;SDS011;47555;51.038;6.280;2022-12-17T02:03:27;66.03;;;18.83;;
25153;SDS011;47555;51.038;6.280;2022-12-17T02:06:23;77.25;;;26.15;;
25153;SDS011;47555;51.038;6.280;2022-12-17T02:09:24;85.00;;;24.42;;
25153;SDS011;47555;51.038;6.280;2022-12-17T02:15:27;79.22;;;23.65;;
25153;SDS011;47555;51.038;6.280;2022-12-17T02:18:17;65.88;;;22.50;;
25153;SDS011;47555;51.038;6.280;2022-12-17T02:21:05;83.43;;;24.95;;
25153;SDS011;47555;51.038;6.280;2022-12-17T02:23:55;69.93;;;23.05;;
25153;SDS011;47555;51.038;6.280;2022-12-17T02:26:46;82.03;;;24.77;;
25153;SDS011;47555;51.038;6.280;2022-12-17T02:29:35;83.22;;;24.20;;
25153;SDS011;47555;51.038;6.280;2022-12-17T02:32:22;73.85;;;23.45;;
25153;SDS011;47555;51.038;6.280;2022-12-17T02:35:14;74.50;;;25.65;;
25153;SDS011;47555;51.038;6.280;2022-12-17T02:38:00;79.88;;;27.17;;
25153;SDS011;47555;51.038;6.280;2022-12-17T02:40:45;71.68;;;25.15;;
25153;SDS011;47555;51.038;6.280;2022-12-17T02:43:31;71.82;;;23.38;;
25153;SDS011;47555;51.038;6.280;2022-12-17T02:46:17;70.85;;;23.95;;
25153;SDS011;47555;51.038;6.280;2022-12-17T02:49:03;65.90;;;20.98;;
25153;SDS011;47555;51.038;6.280;2022-12-17T02:51:47;63.67;;;21.45;;
25153;SDS011;47555;51.038;6.280;2022-12-17T02:54:32;72.50;;;22.27;;
25153;SDS011;47555;51.038;6.280;2022-12-17T02:57:17;73.50;;;23.85;;
25153;SDS011;47555;51.038;6.280;2022-12-17T03:00:03;76.05;;;24.35;;
25153;SDS011;47555;51.038;6.280;2022-12-17T03:02:48;75.43;;;23.73;;
25153;SDS011;47555;51.038;6.280;2022-12-17T03:05:32;69.15;;;25.08;;
25153;SDS011;47555;51.038;6.280;2022-12-17T03:08:16;68.25;;;22.77;;
25153;SDS011;47555;51.038;6.280;2022-12-17T03:11:00;77.55;;;23.63;;
25153;SDS011;47555;51.038;6.280;2022-12-17T03:13:44;70.28;;;23.40;;
25153;SDS011;47555;51.038;6.280;2022-12-17T03:16:28;74.38;;;24.58;;
25153;SDS011;47555;51.038;6.280;2022-12-17T03:19:12;68.88;;;23.75;;
25153;SDS011;47555;51.038;6.280;2022-12-17T03:21:56;79.68;;;26.45;;
25153;SDS011;47555;51.038;6.280;2022-12-17T03:24:40;60.28;;;20.95;;
25153;SDS011;47555;51.038;6.280;2022-12-17T03:27:24;71.22;;;22.92;;
25153;SDS011;47555;51.038;6.280;2022-12-17T03:30:08;70.78;;;23.30;;
25153;SDS011;47555;51.038;6.280;2022-12-17T03:32:53;68.30;;;24.55;;
25153;SDS011;47555;51.038;6.280;2022-12-17T03:35:37;67.28;;;24.02;;
25153;SDS011;47555;51.038;6.280;2022-12-17T03:38:21;59.95;;;22.33;;
25153;SDS011;47555;51.038;6.280;2022-12-17T03:41:05;75.47;;;24.80;;
25153;SDS011;47555;51.038;6.280;2022-12-17T03:43:49;72.18;;;25.85;;
25153;SDS011;47555;51.038;6.280;2022-12-17T03:46:33;65.68;;;24.35;;
25153;SDS011;47555;51.038;6.280;2022-12-17T03:49:17;60.38;;;24.08;;
25153;SDS011;47555;51.038;6.280;2022-12-17T03:52:01;69.35;;;24.63;;
25153;SDS011;47555;51.038;6.280;2022-12-17T03:54:45;67.20;;;22.50;;
25153;SDS011;47555;51.038;6.280;2022-12-17T03:57:29;61.08;;;23.10;;
25153;SDS011;47555;51.038;6.280;2022-12-17T04:00:14;64.25;;;20.90;;
25153;SDS011;47555;51.038;6.280;2022-12-17T04:02:58;45.97;;;16.70;;
25153;SDS011;47555;51.038;6.280;2022-12-17T04:05:42;47.55;;;17.88;;
25153;SDS011;47555;51.038;6.280;2022-12-17T04:08:26;46.00;;;17.52;;
25153;SDS011;47555;51.038;6.280;2022-12-17T04:11:10;47.38;;;18.40;;
25153;SDS011;47555;51.038;6.280;2022-12-17T04:13:54;45.85;;;18.30;;
25153;SDS011;47555;51.038;6.280;2022-12-17T04:16:38;52.08;;;18.25;;
25153;SDS011;47555;51.038;6.280;2022-12-17T04:19:22;47.47;;;18.75;;
25153;SDS011;47555;51.038;6.280;2022-12-17T04:22:06;51.15;;;18.20;;
25153;SDS011;47555;51.038;6.280;2022-12-17T04:25:04;49.20;;;19.08;;
25153;SDS011;47555;51.038;6.280;2022-12-17T04:27:48;57.28;;;22.50;;
25153;SDS011;47555;51.038;6.280;2022-12-17T04:30:32;54.85;;;17.95;;
25153;SDS011;47555;51.038;6.280;2022-12-17T04:33:16;41.47;;;18.25;;
25153;SDS011;47555;51.038;6.280;2022-12-17T04:36:00;44.38;;;18.02;;
25153;SDS011;47555;51.038;6.280;2022-12-17T04:38:45;49.40;;;18.60;;
25153;SDS011;47555;51.038;6.280;2022-12-17T04:41:29;51.13;;;20.17;;
25153;SDS011;47555;51.038;6.280;2022-12-17T04:44:13;48.65;;;18.98;;
25153;SDS011;47555;51.038;6.280;2022-12-17T04:46:57;38.95;;;17.05;;
25153;SDS011;47555;51.038;6.280;2022-12-17T04:49:41;49.25;;;19.98;;
25153;SDS011;47555;51.038;6.280;2022-12-17T04:52:25;45.60;;;17.10;;
25153;SDS011;47555;51.038;6.280;2022-12-17T04:55:09;50.30;;;18.77;;
25153;SDS011;47555;51.038;6.280;2022-12-17T04:57:53;50.05;;;20.45;;
25153;SDS011;47555;51.038;6.280;2022-12-17T05:00:43;50.03;;;18.83;;
25153;SDS011;47555;51.038;6.280;2022-12-17T05:03:27;47.78;;;18.35;;
25153;SDS011;47555;51.038;6.280;2022-12-17T05:06:11;45.90;;;19.13;;
25153;SDS011;47555;51.038;6.280;2022-12-17T05:08:55;47.10;;;17.73;;
25153;SDS011;47555;51.038;6.280;2022-12-17T05:11:39;38.35;;;15.35;;
25153;SDS011;47555;51.038;6.280;2022-12-17T05:14:23;43.85;;;18.00;;
25153;SDS011;47555;51.038;6.280;2022-12-17T05:17:07;41.92;;;16.60;;
25153;SDS011;47555;51.038;6.280;2022-12-17T05:19:52;41.80;;;17.92;;
25153;SDS011;47555;51.038;6.280;2022-12-17T05:22:36;44.38;;;17.23;;
25153;SDS011;47555;51.038;6.280;2022-12-17T05:25:20;37.28;;;16.70;;
25153;SDS011;47555;51.038;6.280;2022-12-17T05:28:04;45.13;;;18.30;;
25153;SDS011;47555;51.038;6.280;2022-12-17T05:30:52;41.40;;;17.10;;
25153;SDS011;47555;51.038;6.280;2022-12-17T05:33:37;40.60;;;16.42;;
25153;SDS011;47555;51.038;6.280;2022-12-17T05:36:21;44.97;;;18.02;;
25153;SDS011;47555;51.038;6.280;2022-12-17T05:39:05;40.08;;;16.63;;
25153;SDS011;47555;51.038;6.280;2022-12-17T05:41:49;41.70;;;16.92;;
25153;SDS011;47555;51.038;6.280;2022-12-17T05:44:33;41.15;;;15.15;;
25153;SDS011;47555;51.038;6.280;2022-12-17T05:47:17;42.08;;;16.23;;
25153;SDS011;47555;51.038;6.280;2022-12-17T05:50:02;38.63;;;16.38;;
25153;SDS011;47555;51.038;6.280;2022-12-17T05:52:46;42.70;;;17.00;;
25153;SDS011;47555;51.038;6.280;2022-12-17T05:55:31;40.15;;;15.13;;
25153;SDS011;47555;51.038;6.280;2022-12-17T05:58:15;44.40;;;14.65;;
25153;SDS011;47555;51.038;6.280;2022-12-17T06:01:00;41.10;;;15.27;;
25153;SDS011;47555;51.038;6.280;2022-12-17T06:03:46;41.78;;;14.48;;
25153;SDS011;47555;51.038;6.280;2022-12-17T06:06:30;35.28;;;14.55;;
25153;SDS011;47555;51.038;6.280;2022-12-17T06:09:14;39.70;;;15.77;;
25153;SDS011;47555;51.038;6.280;2022-12-17T06:11:58;37.33;;;15.77;;
25153;SDS011;47555;51.038;6.280;2022-12-17T06:14:42;37.80;;;14.13;;
25153;SDS011;47555;51.038;6.280;2022-12-17T06:17:27;37.95;;;13.48;;
25153;SDS011;47555;51.038;6.280;2022-12-17T06:20:10;35.33;;;13.90;;
25153;SDS011;47555;51.038;6.280;2022-12-17T06:22:58;39.35;;;13.57;;
25153;SDS011;47555;51.038;6.280;2022-12-17T06:25:47;33.75;;;13.02;;
25153;SDS011;47555;51.038;6.280;2022-12-17T06:28:31;37.88;;;15.43;;
25153;SDS011;47555;51.038;6.280;2022-12-17T06:31:15;39.03;;;15.50;;
25153;SDS011;47555;51.038;6.280;2022-12-17T06:33:59;40.53;;;14.90;;
25153;SDS011;47555;51.038;6.280;2022-12-17T06:36:44;50.08;;;17.45;;
25153;SDS011;47555;51.038;6.280;2022-12-17T06:39:28;43.10;;;16.08;;
25153;SDS011;47555;51.038;6.280;2022-12-17T06:42:12;43.53;;;17.17;;
25153;SDS011;47555;51.038;6.280;2022-12-17T06:44:56;39.17;;;15.88;;
25153;SDS011;47555;51.038;6.280;2022-12-17T06:47:40;37.83;;;16.25;;
25153;SDS011;47555;51.038;6.280;2022-12-17T06:50:24;41.10;;;16.27;;
25153;SDS011;47555;51.038;6.280;2022-12-17T06:53:08;51.50;;;17.98;;
25153;SDS011;47555;51.038;6.280;2022-12-17T06:55:55;50.38;;;18.48;;
25153;SDS011;47555;51.038;6.280;2022-12-17T06:58:40;47.38;;;18.83;;
25153;SDS011;47555;51.038;6.280;2022-12-17T07:01:24;52.05;;;18.48;;
25153;SDS011;47555;51.038;6.280;2022-12-17T07:04:09;64.68;;;20.98;;
25153;SDS011;47555;51.038;6.280;2022-12-17T07:07:06;50.13;;;19.17;;
25153;SDS011;47555;51.038;6.280;2022-12-17T07:09:51;58.40;;;21.10;;
25153;SDS011;47555;51.038;6.280;2022-12-17T07:12:35;55.53;;;20.05;;
25153;SDS011;47555;51.038;6.280;2022-12-17T07:15:19;53.58;;;18.55;;
25153;SDS011;47555;51.038;6.280;2022-12-17T07:18:03;53.13;;;19.63;;
25153;SDS011;47555;51.038;6.280;2022-12-17T07:20:48;46.60;;;18.38;;
25153;SDS011;47555;51.038;6.280;2022-12-17T07:23:35;49.88;;;16.88;;
25153;SDS011;47555;51.038;6.280;2022-12-17T07:26:19;49.45;;;16.60;;
25153;SDS011;47555;51.038;6.280;2022-12-17T07:29:03;52.17;;;14.52;;
25153;SDS011;47555;51.038;6.280;2022-12-17T07:31:47;56.60;;;15.85;;
25153;SDS011;47555;51.038;6.280;2022-12-17T07:34:33;44.28;;;15.77;;
25153;SDS011;47555;51.038;6.280;2022-12-17T07:37:17;32.80;;;13.82;;
25153;SDS011;47555;51.038;6.280;2022-12-17T07:40:01;42.20;;;15.07;;
25153;SDS011;47555;51.038;6.280;2022-12-17T07:42:46;36.30;;;13.65;;
25153;SDS011;47555;51.038;6.280;2022-12-17T07:45:30;46.05;;;16.98;;
25153;SDS011;47555;51.038;6.280;2022-12-17T07:48:14;36.08;;;14.45;;
25153;SDS011;47555;51.038;6.280;2022-12-17T07:50:58;42.55;;;15.73;;
25153;SDS011;47555;51.038;6.280;2022-12-17T07:53:42;36.22;;;14.77;;
25153;SDS011;47555;51.038;6.280;2022-12-17T07:56:26;47.13;;;18.27;;
25153;SDS011;47555;51.038;6.280;2022-12-17T07:59:09;41.35;;;16.20;;
25153;SDS011;47555;51.038;6.280;2022-12-17T08:01:56;41.83;;;16.10;;
25153;SDS011;47555;51.038;6.280;2022-12-17T08:04:40;39.50;;;16.15;;
25153;SDS011;47555;51.038;6.280;2022-12-17T08:07:25;42.25;;;16.15;;
25153;SDS011;47555;51.038;6.280;2022-12-17T08:10:09;54.45;;;16.23;;
25153;SDS011;47555;51.038;6.280;2022-12-17T08:12:57;37.45;;;14.77;;
25153;SDS011;47555;51.038;6.280;2022-12-17T08:15:44;46.42;;;17.30;;
25153;SDS011;47555;51.038;6.280;2022-12-17T08:18:28;40.72;;;16.67;;
25153;SDS011;47555;51.038;6.280;2022-12-17T08:21:13;42.25;;;16.65;;
25153;SDS011;47555;51.038;6.280;2022-12-17T08:23:57;42.42;;;14.90;;
25153;SDS011;47555;51.038;6.280;2022-12-17T08:26:41;48.95;;;15.77;;
25153;SDS011;47555;51.038;6.280;2022-12-17T08:29:25;40.45;;;15.45;;
25153;SDS011;47555;51.038;6.280;2022-12-17T08:32:09;39.78;;;14.77;;
25153;SDS011;47555;51.038;6.280;2022-12-17T08:34:53;47.53;;;15.35;;
25153;SDS011;47555;51.038;6.280;2022-12-17T08:37:37;38.55;;;15.05;;
25153;SDS011;47555;51.038;6.280;2022-12-17T08:40:22;37.78;;;15.48;;
25153;SDS011;47555;51.038;6.280;2022-12-17T08:43:06;43.20;;;16.40;;
25153;SDS011;47555;51.038;6.280;2022-12-17T08:45:50;40.95;;;16.00;;
25153;SDS011;47555;51.038;6.280;2022-12-17T08:48:34;37.42;;;14.95;;
25153;SDS011;47555;51.038;6.280;2022-12-17T08:51:19;42.65;;;15.93;;
25153;SDS011;47555;51.038;6.280;2022-12-17T08:54:04;40.47;;;15.07;;
25153;SDS011;47555;51.038;6.280;2022-12-17T08:56:48;42.08;;;14.85;;
25153;SDS011;47555;51.038;6.280;2022-12-17T08:59:32;39.28;;;14.38;;
25153;SDS011;47555;51.038;6.280;2022-12-17T09:09:00;40.20;;;13.70;;
25153;SDS011;47555;51.038;6.280;2022-12-17T09:11:44;39.63;;;12.93;;
25153;SDS011;47555;51.038;6.280;2022-12-17T09:14:28;40.50;;;14.00;;
25153;SDS011;47555;51.038;6.280;2022-12-17T09:17:15;42.22;;;15.65;;
25153;SDS011;47555;51.038;6.280;2022-12-17T09:19:59;35.85;;;13.82;;
25153;SDS011;47555;51.038;6.280;2022-12-17T09:22:43;31.30;;;13.07;;
25153;SDS011;47555;51.038;6.280;2022-12-17T09:25:27;44.05;;;15.30;;
25153;SDS011;47555;51.038;6.280;2022-12-17T09:28:11;43.95;;;15.07;;
25153;SDS011;47555;51.038;6.280;2022-12-17T09:30:59;37.38;;;14.07;;
25153;SDS011;47555;51.038;6.280;2022-12-17T09:33:44;40.08;;;14.45;;
25153;SDS011;47555;51.038;6.280;2022-12-17T09:36:28;45.22;;;15.50;;
25153;SDS011;47555;51.038;6.280;2022-12-17T09:39:12;38.78;;;14.20;;
25153;SDS011;47555;51.038;6.280;2022-12-17T09:42:00;33.35;;;13.05;;
25153;SDS011;47555;51.038;6.280;2022-12-17T09:51:04;33.63;;;13.07;;
25153;SDS011;47555;51.038;6.280;2022-12-17T09:53:56;37.20;;;14.77;;
25153;SDS011;47555;51.038;6.280;2022-12-17T09:56:40;35.83;;;12.80;;
25153;SDS011;47555;51.038;6.280;2022-12-17T09:59:27;29.08;;;11.27;;
25153;SDS011;47555;51.038;6.280;2022-12-17T10:02:19;32.03;;;12.23;;
25153;SDS011;47555;51.038;6.280;2022-12-17T10:05:08;41.47;;;13.77;;
25153;SDS011;47555;51.038;6.280;2022-12-17T10:07:57;28.35;;;11.50;;
25153;SDS011;47555;51.038;6.280;2022-12-17T10:10:45;31.08;;;11.27;;
25153;SDS011;47555;51.038;6.280;2022-12-17T10:13:48;35.60;;;11.63;;
25153;SDS011;47555;51.038;6.280;2022-12-17T10:16:32;30.20;;;11.95;;
25153;SDS011;47555;51.038;6.280;2022-12-17T10:19:34;32.08;;;12.23;;
25153;SDS011;47555;51.038;6.280;2022-12-17T10:22:22;33.70;;;13.13;;
25153;SDS011;47555;51.038;6.280;2022-12-17T10:25:08;28.80;;;12.20;;
25153;SDS011;47555;51.038;6.280;2022-12-17T10:28:05;31.42;;;13.52;;
25153;SDS011;47555;51.038;6.280;2022-12-17T10:30:54;27.70;;;10.63;;
25153;SDS011;47555;51.038;6.280;2022-12-17T10:33:39;34.50;;;12.30;;
25153;SDS011;47555;51.038;6.280;2022-12-17T10:36:24;37.78;;;14.07;;
25153;SDS011;47555;51.038;6.280;2022-12-17T10:39:17;33.53;;;11.93;;
25153;SDS011;47555;51.038;6.280;2022-12-17T10:45:26;33.10;;;11.98;;
25153;SDS011;47555;51.038;6.280;2022-12-17T10:48:16;35.03;;;12.35;;
25153;SDS011;47555;51.038;6.280;2022-12-17T10:51:01;42.15;;;13.80;;
25153;SDS011;47555;51.038;6.280;2022-12-17T10:53:49;30.17;;;11.50;;
25153;SDS011;47555;51.038;6.280;2022-12-17T10:56:35;34.22;;;11.38;;
25153;SDS011;47555;51.038;6.280;2022-12-17T10:59:35;34.10;;;12.65;;
25153;SDS011;47555;51.038;6.280;2022-12-17T11:02:25;32.63;;;11.60;;
25153;SDS011;47555;51.038;6.280;2022-12-17T11:05:19;30.45;;;12.50;;
25153;SDS011;47555;51.038;6.280;2022-12-17T11:08:09;33.50;;;12.88;;
25153;SDS011;47555;51.038;6.280;2022-12-17T11:10:58;35.83;;;14.35;;
25153;SDS011;47555;51.038;6.280;2022-12-17T11:17:13;37.53;;;13.37;;
25153;SDS011;47555;51.038;6.280;2022-12-17T11:20:01;42.67;;;13.57;;
25153;SDS011;47555;51.038;6.280;2022-12-17T11:25:47;30.75;;;12.15;;
25153;SDS011;47555;51.038;6.280;2022-12-17T11:29:11;36.17;;;12.52;;
25153;SDS011;47555;51.038;6.280;2022-12-17T11:34:59;36.08;;;13.57;;
25153;SDS011;47555;51.038;6.280;2022-12-17T11:41:23;35.40;;;12.38;;
25153;SDS011;47555;51.038;6.280;2022-12-17T11:47:44;39.20;;;14.85;;
25153;SDS011;47555;51.038;6.280;2022-12-17T11:50:51;35.58;;;13.07;;
25153;SDS011;47555;51.038;6.280;2022-12-17T11:57:22;44.20;;;14.73;;
25153;SDS011;47555;51.038;6.280;2022-12-17T12:00:19;38.42;;;14.82;;
25153;SDS011;47555;51.038;6.280;2022-12-17T12:21:58;40.20;;;16.88;;
25153;SDS011;47555;51.038;6.280;2022-12-17T12:28:11;50.97;;;17.33;;
25153;SDS011;47555;51.038;6.280;2022-12-17T12:31:24;46.90;;;17.98;;
25153;SDS011;47555;51.038;6.280;2022-12-17T12:37:06;51.30;;;18.05;;
25153;SDS011;47555;51.038;6.280;2022-12-17T12:42:44;43.88;;;16.88;;
25153;SDS011;47555;51.038;6.280;2022-12-17T12:48:29;41.25;;;16.58;;
25153;SDS011;47555;51.038;6.280;2022-12-17T12:51:40;40.38;;;15.00;;
25153;SDS011;47555;51.038;6.280;2022-12-17T12:54:48;41.00;;;15.80;;
25153;SDS011;47555;51.038;6.280;2022-12-17T13:03:30;42.72;;;17.70;;
25153;SDS011;47555;51.038;6.280;2022-12-17T13:11:39;44.15;;;17.27;;
25153;SDS011;47555;51.038;6.280;2022-12-17T13:14:06;47.13;;;16.80;;
25153;SDS011;47555;51.038;6.280;2022-12-17T13:19:43;53.20;;;18.15;;
25153;SDS011;47555;51.038;6.280;2022-12-17T13:24:44;50.70;;;17.55;;
25153;SDS011;47555;51.038;6.280;2022-12-17T13:30:10;47.08;;;17.65;;
25153;SDS011;47555;51.038;6.280;2022-12-17T13:38:41;46.10;;;15.63;;
25153;SDS011;47555;51.038;6.280;2022-12-17T13:41:10;40.55;;;15.73;;
25153;SDS011;47555;51.038;6.280;2022-12-17T13:50:18;35.53;;;14.98;;
25153;SDS011;47555;51.038;6.280;2022-12-17T13:52:46;39.10;;;13.80;;
25153;SDS011;47555;51.038;6.280;2022-12-17T13:55:25;37.25;;;15.38;;
25153;SDS011;47555;51.038;6.280;2022-12-17T13:57:53;41.22;;;15.57;;
25153;SDS011;47555;51.038;6.280;2022-12-17T14:02:52;44.75;;;16.52;;
25153;SDS011;47555;51.038;6.280;2022-12-17T14:05:31;44.40;;;15.90;;
25153;SDS011;47555;51.038;6.280;2022-12-17T14:08:01;39.00;;;15.13;;
25153;SDS011;47555;51.038;6.280;2022-12-17T14:10:29;44.67;;;16.42;;
25153;SDS011;47555;51.038;6.280;2022-12-17T14:13:03;39.78;;;15.77;;
25153;SDS011;47555;51.038;6.280;2022-12-17T14:15:31;34.20;;;14.10;;
25153;SDS011;47555;51.038;6.280;2022-12-17T14:17:57;43.28;;;15.43;;
25153;SDS011;47555;51.038;6.280;2022-12-17T14:20:24;39.05;;;14.82;;
25153;SDS011;47555;51.038;6.280;2022-12-17T14:22:54;36.58;;;13.90;;
25153;SDS011;47555;51.038;6.280;2022-12-17T14:25:33;30.35;;;12.95;;
25153;SDS011;47555;51.038;6.280;2022-12-17T14:30:48;35.78;;;13.25;;
25153;SDS011;47555;51.038;6.280;2022-12-17T14:33:24;31.45;;;12.32;;
25153;SDS011;47555;51.038;6.280;2022-12-17T14:35:58;34.95;;;12.50;;
25153;SDS011;47555;51.038;6.280;2022-12-17T14:38:26;31.95;;;12.13;;
25153;SDS011;47555;51.038;6.280;2022-12-17T14:40:52;28.75;;;12.93;;
25153;SDS011;47555;51.038;6.280;2022-12-17T14:43:22;40.03;;;13.30;;
25153;SDS011;47555;51.038;6.280;2022-12-17T14:45:53;35.58;;;14.20;;
25153;SDS011;47555;51.038;6.280;2022-12-17T14:48:41;31.50;;;12.55;;
25153;SDS011;47555;51.038;6.280;2022-12-17T14:54:04;35.20;;;13.73;;
25153;SDS011;47555;51.038;6.280;2022-12-17T14:56:50;26.05;;;11.30;;
25153;SDS011;47555;51.038;6.280;2022-12-17T15:01:58;28.52;;;13.63;;
25153;SDS011;47555;51.038;6.280;2022-12-17T15:04:48;31.20;;;11.77;;
25153;SDS011;47555;51.038;6.280;2022-12-17T15:07:16;24.98;;;12.73;;
25153;SDS011;47555;51.038;6.280;2022-12-17T15:09:47;28.83;;;12.63;;
25153;SDS011;47555;51.038;6.280;2022-12-17T15:12:12;27.95;;;12.88;;
25153;SDS011;47555;51.038;6.280;2022-12-17T15:14:38;27.17;;;13.02;;
25153;SDS011;47555;51.038;6.280;2022-12-17T15:17:03;32.45;;;12.93;;
25153;SDS011;47555;51.038;6.280;2022-12-17T15:19:29;34.42;;;13.23;;
25153;SDS011;47555;51.038;6.280;2022-12-17T15:21:55;29.25;;;12.13;;
25153;SDS011;47555;51.038;6.280;2022-12-17T15:24:20;34.53;;;13.85;;
25153;SDS011;47555;51.038;6.280;2022-12-17T15:26:48;37.13;;;14.30;;
25153;SDS011;47555;51.038;6.280;2022-12-17T15:29:14;31.40;;;12.45;;
25153;SDS011;47555;51.038;6.280;2022-12-17T15:31:39;30.75;;;13.15;;
25153;SDS011;47555;51.038;6.280;2022-12-17T15:34:05;25.67;;;11.48;;
25153;SDS011;47555;51.038;6.280;2022-12-17T15:36:31;32.92;;;13.93;;
25153;SDS011;47555;51.038;6.280;2022-12-17T15:38:57;32.25;;;13.68;;
25153;SDS011;47555;51.038;6.280;2022-12-17T15:41:23;34.20;;;13.30;;
25153;SDS011;47555;51.038;6.280;2022-12-17T15:44:07;31.40;;;13.25;;
25153;SDS011;47555;51.038;6.280;2022-12-17T15:46:33;27.48;;;12.70;;
25153;SDS011;47555;51.038;6.280;2022-12-17T15:48:58;31.23;;;13.32;;
25153;SDS011;47555;51.038;6.280;2022-12-17T15:51:24;31.98;;;13.70;;
25153;SDS011;47555;51.038;6.280;2022-12-17T15:53:50;27.70;;;12.45;;
25153;SDS011;47555;51.038;6.280;2022-12-17T15:56:19;31.20;;;11.80;;
25153;SDS011;47555;51.038;6.280;2022-12-17T15:58:46;28.47;;;12.67;;
25153;SDS011;47555;51.038;6.280;2022-12-17T16:01:12;33.10;;;14.23;;
25153;SDS011;47555;51.038;6.280;2022-12-17T16:10:04;27.58;;;12.73;;
25153;SDS011;47555;51.038;6.280;2022-12-17T16:12:30;24.50;;;10.90;;
25153;SDS011;47555;51.038;6.280;2022-12-17T16:14:55;31.10;;;12.23;;
25153;SDS011;47555;51.038;6.280;2022-12-17T16:17:21;35.28;;;13.10;;
25153;SDS011;47555;51.038;6.280;2022-12-17T16:19:46;25.25;;;12.05;;
25153;SDS011;47555;51.038;6.280;2022-12-17T16:22:12;27.38;;;13.80;;
25153;SDS011;47555;51.038;6.280;2022-12-17T16:24:38;30.58;;;12.57;;
25153;SDS011;47555;51.038;6.280;2022-12-17T16:27:04;26.73;;;13.02;;
25153;SDS011;47555;51.038;6.280;2022-12-17T16:29:30;32.95;;;13.77;;
25153;SDS011;47555;51.038;6.280;2022-12-17T16:31:56;29.27;;;14.63;;
25153;SDS011;47555;51.038;6.280;2022-12-17T16:34:22;33.92;;;13.35;;
25153;SDS011;47555;51.038;6.280;2022-12-17T16:36:47;35.33;;;14.73;;
25153;SDS011;47555;51.038;6.280;2022-12-17T16:39:14;41.90;;;17.10;;
25153;SDS011;47555;51.038;6.280;2022-12-17T16:41:41;39.60;;;15.05;;
25153;SDS011;47555;51.038;6.280;2022-12-17T16:44:07;34.88;;;14.73;;
25153;SDS011;47555;51.038;6.280;2022-12-17T16:46:33;35.70;;;15.55;;
25153;SDS011;47555;51.038;6.280;2022-12-17T16:49:04;39.75;;;16.80;;
25153;SDS011;47555;51.038;6.280;2022-12-17T16:51:38;31.92;;;15.68;;
25153;SDS011;47555;51.038;6.280;2022-12-17T16:54:08;34.78;;;15.30;;
25153;SDS011;47555;51.038;6.280;2022-12-17T16:56:37;34.42;;;14.55;;
25153;SDS011;47555;51.038;6.280;2022-12-17T16:59:03;30.63;;;13.93;;
25153;SDS011;47555;51.038;6.280;2022-12-17T17:01:31;33.75;;;13.43;;
25153;SDS011;47555;51.038;6.280;2022-12-17T17:03:57;29.10;;;13.70;;
25153;SDS011;47555;51.038;6.280;2022-12-17T17:06:23;31.65;;;13.13;;
25153;SDS011;47555;51.038;6.280;2022-12-17T17:08:49;31.38;;;14.05;;
25153;SDS011;47555;51.038;6.280;2022-12-17T17:11:19;36.30;;;13.43;;
25153;SDS011;47555;51.038;6.280;2022-12-17T17:13:46;38.88;;;14.13;;
25153;SDS011;47555;51.038;6.280;2022-12-17T17:16:13;33.67;;;15.77;;
25153;SDS011;47555;51.038;6.280;2022-12-17T17:18:39;34.88;;;14.60;;
25153;SDS011;47555;51.038;6.280;2022-12-17T17:21:11;30.17;;;13.43;;
25153;SDS011;47555;51.038;6.280;2022-12-17T17:23:37;29.00;;;12.38;;
25153;SDS011;47555;51.038;6.280;2022-12-17T17:26:03;31.17;;;12.88;;
25153;SDS011;47555;51.038;6.280;2022-12-17T17:28:30;33.63;;;14.90;;
25153;SDS011;47555;51.038;6.280;2022-12-17T17:30:59;29.02;;;15.07;;
25153;SDS011;47555;51.038;6.280;2022-12-17T17:33:29;34.38;;;15.77;;
25153;SDS011;47555;51.038;6.280;2022-12-17T17:36:01;40.05;;;16.38;;
25153;SDS011;47555;51.038;6.280;2022-12-17T17:38:34;32.05;;;15.25;;
25153;SDS011;47555;51.038;6.280;2022-12-17T17:41:01;40.13;;;16.58;;
25153;SDS011;47555;51.038;6.280;2022-12-17T17:43:28;35.85;;;15.57;;
25153;SDS011;47555;51.038;6.280;2022-12-17T17:46:07;37.92;;;16.95;;
25153;SDS011;47555;51.038;6.280;2022-12-17T17:48:33;39.40;;;16.35;;
25153;SDS011;47555;51.038;6.280;2022-12-17T17:51:00;32.10;;;14.60;;
25153;SDS011;47555;51.038;6.280;2022-12-17T17:53:28;36.55;;;17.27;;